sensor_id;sensor_type;location;lat;lon;timestamp;P1;durP1;ratioP1;P2;durP2;ratioP2
15858;SDS011;8029;52.202;7.308;2023-02-15T00:00:22;7.87;;;5.90;;
15858;SDS011;8029;52.202;7.308;2023-02-15T00:02:48;8.00;;;6.07;;
15858;SDS011;8029;52.202;7.308;2023-02-15T00:05:14;9.27;;;6.43;;
15858;SDS011;8029;52.202;7.308;2023-02-15T00:07:41;7.63;;;5.90;;
15858;SDS011;8029;52.202;7.308;2023-02-15T00:10:07;10.90;;;6.80;;
15858;SDS011;8029;52.202;7.308;2023-02-15T00:12:33;8.67;;;5.73;;
15858;SDS011;8029;52.202;7.308;2023-02-15T00:14:59;7.50;;;6.37;;
15858;SDS011;8029;52.202;7.308;2023-02-15T00:17:28;9.00;;;7.07;;
15858;SDS011;8029;52.202;7.308;2023-02-15T00:19:57;8.33;;;6.60;;
15858;SDS011;8029;52.202;7.308;2023-02-15T00:22:22;13.57;;;6.67;;
15858;SDS011;8029;52.202;7.308;2023-02-15T00:24:48;7.30;;;6.60;;
15858;SDS011;8029;52.202;7.308;2023-02-15T00:27:15;8.03;;;6.77;;
15858;SDS011;8029;52.202;7.308;2023-02-15T00:29:41;9.77;;;6.83;;
15858;SDS011;8029;52.202;7.308;2023-02-15T00:32:06;8.53;;;6.60;;
15858;SDS011;8029;52.202;7.308;2023-02-15T00:34:32;5.87;;;5.23;;
15858;SDS011;8029;52.202;7.308;2023-02-15T00:36:58;9.67;;;7.07;;
15858;SDS011;8029;52.202;7.308;2023-02-15T00:39:24;7.40;;;6.43;;
15858;SDS011;8029;52.202;7.308;2023-02-15T00:41:52;9.60;;;6.37;;
15858;SDS011;8029;52.202;7.308;2023-02-15T00:44:18;9.20;;;7.27;;
15858;SDS011;8029;52.202;7.308;2023-02-15T00:46:44;7.23;;;6.17;;
15858;SDS011;8029;52.202;7.308;2023-02-15T00:49:10;8.10;;;6.60;;
15858;SDS011;8029;52.202;7.308;2023-02-15T00:51:36;8.93;;;7.50;;
15858;SDS011;8029;52.202;7.308;2023-02-15T00:54:02;7.13;;;6.20;;
15858;SDS011;8029;52.202;7.308;2023-02-15T00:56:28;5.77;;;5.20;;
15858;SDS011;8029;52.202;7.308;2023-02-15T00:58:54;7.00;;;6.23;;
15858;SDS011;8029;52.202;7.308;2023-02-15T01:01:20;9.30;;;7.13;;
15858;SDS011;8029;52.202;7.308;2023-02-15T01:03:47;9.37;;;7.40;;
15858;SDS011;8029;52.202;7.308;2023-02-15T01:06:14;7.63;;;6.50;;
15858;SDS011;8029;52.202;7.308;2023-02-15T01:08:42;19.57;;;5.70;;
15858;SDS011;8029;52.202;7.308;2023-02-15T01:11:13;7.70;;;6.57;;
15858;SDS011;8029;52.202;7.308;2023-02-15T01:13:39;9.63;;;7.13;;
15858;SDS011;8029;52.202;7.308;2023-02-15T01:16:05;9.37;;;6.47;;
15858;SDS011;8029;52.202;7.308;2023-02-15T01:18:32;9.80;;;7.33;;
15858;SDS011;8029;52.202;7.308;2023-02-15T01:20:58;7.50;;;6.73;;
15858;SDS011;8029;52.202;7.308;2023-02-15T01:23:24;7.40;;;6.63;;
15858;SDS011;8029;52.202;7.308;2023-02-15T01:25:50;14.20;;;7.17;;
15858;SDS011;8029;52.202;7.308;2023-02-15T01:28:16;7.73;;;6.43;;
15858;SDS011;8029;52.202;7.308;2023-02-15T01:30:42;10.53;;;8.20;;
15858;SDS011;8029;52.202;7.308;2023-02-15T01:33:09;10.83;;;7.23;;
15858;SDS011;8029;52.202;7.308;2023-02-15T01:35:42;7.50;;;6.00;;
15858;SDS011;8029;52.202;7.308;2023-02-15T01:38:08;9.93;;;6.90;;
15858;SDS011;8029;52.202;7.308;2023-02-15T01:40:34;7.17;;;6.47;;
15858;SDS011;8029;52.202;7.308;2023-02-15T01:43:00;8.93;;;7.70;;
15858;SDS011;8029;52.202;7.308;2023-02-15T01:45:27;7.27;;;6.47;;
15858;SDS011;8029;52.202;7.308;2023-02-15T01:48:02;8.00;;;6.73;;
15858;SDS011;8029;52.202;7.308;2023-02-15T01:53:15;7.07;;;6.27;;
15858;SDS011;8029;52.202;7.308;2023-02-15T01:55:55;10.80;;;7.53;;
15858;SDS011;8029;52.202;7.308;2023-02-15T01:58:22;6.73;;;6.03;;
15858;SDS011;8029;52.202;7.308;2023-02-15T02:00:49;8.40;;;6.93;;
15858;SDS011;8029;52.202;7.308;2023-02-15T02:03:15;16.43;;;6.87;;
15858;SDS011;8029;52.202;7.308;2023-02-15T02:05:41;8.10;;;7.30;;
15858;SDS011;8029;52.202;7.308;2023-02-15T02:08:08;10.40;;;7.57;;
15858;SDS011;8029;52.202;7.308;2023-02-15T02:10:36;7.40;;;6.70;;
15858;SDS011;8029;52.202;7.308;2023-02-15T02:13:03;20.60;;;8.20;;
15858;SDS011;8029;52.202;7.308;2023-02-15T02:18:28;8.97;;;7.27;;
15858;SDS011;8029;52.202;7.308;2023-02-15T02:26:12;11.10;;;8.13;;
15858;SDS011;8029;52.202;7.308;2023-02-15T02:47:09;11.37;;;8.23;;
15858;SDS011;8029;52.202;7.308;2023-02-15T02:49:40;8.20;;;6.60;;
15858;SDS011;8029;52.202;7.308;2023-02-15T02:54:53;9.57;;;7.67;;
15858;SDS011;8029;52.202;7.308;2023-02-15T02:57:19;7.17;;;6.47;;
15858;SDS011;8029;52.202;7.308;2023-02-15T02:59:47;6.33;;;5.73;;
15858;SDS011;8029;52.202;7.308;2023-02-15T03:02:16;8.43;;;7.17;;
15858;SDS011;8029;52.202;7.308;2023-02-15T03:04:46;9.33;;;7.63;;
15858;SDS011;8029;52.202;7.308;2023-02-15T03:07:17;8.03;;;7.00;;
15858;SDS011;8029;52.202;7.308;2023-02-15T03:09:49;6.87;;;6.17;;
15858;SDS011;8029;52.202;7.308;2023-02-15T03:12:18;7.63;;;6.90;;
15858;SDS011;8029;52.202;7.308;2023-02-15T03:14:46;8.53;;;7.47;;
15858;SDS011;8029;52.202;7.308;2023-02-15T03:17:13;7.77;;;6.63;;
15858;SDS011;8029;52.202;7.308;2023-02-15T03:19:40;11.00;;;8.33;;
15858;SDS011;8029;52.202;7.308;2023-02-15T03:22:13;9.00;;;7.43;;
15858;SDS011;8029;52.202;7.308;2023-02-15T03:24:48;11.57;;;8.60;;
15858;SDS011;8029;52.202;7.308;2023-02-15T03:27:19;7.90;;;7.10;;
15858;SDS011;8029;52.202;7.308;2023-02-15T03:29:46;8.77;;;7.17;;
15858;SDS011;8029;52.202;7.308;2023-02-15T03:32:13;9.27;;;7.80;;
15858;SDS011;8029;52.202;7.308;2023-02-15T03:34:40;8.50;;;7.30;;
15858;SDS011;8029;52.202;7.308;2023-02-15T03:37:10;9.37;;;8.07;;
15858;SDS011;8029;52.202;7.308;2023-02-15T03:39:45;8.37;;;7.30;;
15858;SDS011;8029;52.202;7.308;2023-02-15T03:42:17;9.50;;;8.00;;
15858;SDS011;8029;52.202;7.308;2023-02-15T03:45:03;43.43;;;12.07;;
15858;SDS011;8029;52.202;7.308;2023-02-15T03:47:32;29.70;;;10.33;;
15858;SDS011;8029;52.202;7.308;2023-02-15T03:50:01;47.10;;;10.63;;
15858;SDS011;8029;52.202;7.308;2023-02-15T03:52:29;52.93;;;12.47;;
15858;SDS011;8029;52.202;7.308;2023-02-15T03:54:56;23.37;;;10.20;;
15858;SDS011;8029;52.202;7.308;2023-02-15T03:57:24;25.27;;;10.17;;
15858;SDS011;8029;52.202;7.308;2023-02-15T04:00:11;10.43;;;8.07;;
15858;SDS011;8029;52.202;7.308;2023-02-15T04:03:39;31.37;;;10.97;;
15858;SDS011;8029;52.202;7.308;2023-02-15T04:05:46;12.67;;;9.63;;
15858;SDS011;8029;52.202;7.308;2023-02-15T04:08:12;13.07;;;8.97;;
15858;SDS011;8029;52.202;7.308;2023-02-15T04:10:38;9.23;;;8.23;;
15858;SDS011;8029;52.202;7.308;2023-02-15T04:13:23;19.27;;;9.20;;
15858;SDS011;8029;52.202;7.308;2023-02-15T04:15:49;20.73;;;8.57;;
15858;SDS011;8029;52.202;7.308;2023-02-15T04:18:32;27.17;;;9.93;;
15858;SDS011;8029;52.202;7.308;2023-02-15T04:21:17;19.93;;;9.63;;
15858;SDS011;8029;52.202;7.308;2023-02-15T04:24:02;31.67;;;9.17;;
15858;SDS011;8029;52.202;7.308;2023-02-15T04:26:47;10.57;;;8.67;;
15858;SDS011;8029;52.202;7.308;2023-02-15T04:29:16;19.53;;;10.53;;
15858;SDS011;8029;52.202;7.308;2023-02-15T04:31:42;13.23;;;8.83;;
15858;SDS011;8029;52.202;7.308;2023-02-15T04:34:08;10.30;;;8.57;;
15858;SDS011;8029;52.202;7.308;2023-02-15T04:36:35;14.07;;;10.40;;
15858;SDS011;8029;52.202;7.308;2023-02-15T04:39:01;27.13;;;11.03;;
15858;SDS011;8029;52.202;7.308;2023-02-15T04:41:27;15.93;;;9.77;;
15858;SDS011;8029;52.202;7.308;2023-02-15T04:43:53;18.90;;;13.23;;
15858;SDS011;8029;52.202;7.308;2023-02-15T04:46:19;11.03;;;9.37;;
15858;SDS011;8029;52.202;7.308;2023-02-15T04:48:45;12.20;;;9.70;;
15858;SDS011;8029;52.202;7.308;2023-02-15T04:51:11;14.87;;;10.73;;
15858;SDS011;8029;52.202;7.308;2023-02-15T04:53:37;75.97;;;11.93;;
15858;SDS011;8029;52.202;7.308;2023-02-15T04:56:03;14.77;;;11.37;;
15858;SDS011;8029;52.202;7.308;2023-02-15T04:58:29;51.53;;;12.27;;
15858;SDS011;8029;52.202;7.308;2023-02-15T05:00:56;43.57;;;10.50;;
15858;SDS011;8029;52.202;7.308;2023-02-15T05:03:22;15.10;;;11.17;;
15858;SDS011;8029;52.202;7.308;2023-02-15T05:05:48;33.10;;;11.27;;
15858;SDS011;8029;52.202;7.308;2023-02-15T05:08:14;26.17;;;9.47;;
15858;SDS011;8029;52.202;7.308;2023-02-15T05:10:40;45.50;;;10.73;;
15858;SDS011;8029;52.202;7.308;2023-02-15T05:13:06;48.03;;;10.50;;
15858;SDS011;8029;52.202;7.308;2023-02-15T05:15:31;10.33;;;8.47;;
15858;SDS011;8029;52.202;7.308;2023-02-15T05:17:57;12.50;;;8.70;;
15858;SDS011;8029;52.202;7.308;2023-02-15T05:20:23;11.10;;;9.50;;
15858;SDS011;8029;52.202;7.308;2023-02-15T05:22:52;14.10;;;10.43;;
15858;SDS011;8029;52.202;7.308;2023-02-15T05:25:19;7.53;;;6.73;;
15858;SDS011;8029;52.202;7.308;2023-02-15T05:28:21;8.80;;;7.90;;
15858;SDS011;8029;52.202;7.308;2023-02-15T05:31:07;10.63;;;7.77;;
15858;SDS011;8029;52.202;7.308;2023-02-15T05:33:33;10.10;;;8.00;;
15858;SDS011;8029;52.202;7.308;2023-02-15T05:36:00;11.90;;;8.60;;
15858;SDS011;8029;52.202;7.308;2023-02-15T05:38:26;9.70;;;8.70;;
15858;SDS011;8029;52.202;7.308;2023-02-15T05:40:52;9.27;;;8.27;;
15858;SDS011;8029;52.202;7.308;2023-02-15T05:43:19;8.77;;;7.87;;
15858;SDS011;8029;52.202;7.308;2023-02-15T05:45:46;13.80;;;7.47;;
15858;SDS011;8029;52.202;7.308;2023-02-15T05:48:12;9.03;;;7.53;;
15858;SDS011;8029;52.202;7.308;2023-02-15T05:50:38;17.33;;;7.50;;
15858;SDS011;8029;52.202;7.308;2023-02-15T05:53:04;18.57;;;7.60;;
15858;SDS011;8029;52.202;7.308;2023-02-15T05:55:30;16.47;;;7.10;;
15858;SDS011;8029;52.202;7.308;2023-02-15T05:57:56;26.47;;;9.90;;
15858;SDS011;8029;52.202;7.308;2023-02-15T06:00:22;25.40;;;9.07;;
15858;SDS011;8029;52.202;7.308;2023-02-15T06:02:48;9.20;;;7.80;;
15858;SDS011;8029;52.202;7.308;2023-02-15T06:05:14;9.43;;;8.23;;
15858;SDS011;8029;52.202;7.308;2023-02-15T06:07:42;10.63;;;8.60;;
15858;SDS011;8029;52.202;7.308;2023-02-15T06:10:10;8.63;;;6.53;;
15858;SDS011;8029;52.202;7.308;2023-02-15T06:12:36;8.50;;;7.50;;
15858;SDS011;8029;52.202;7.308;2023-02-15T06:15:02;7.27;;;6.37;;
15858;SDS011;8029;52.202;7.308;2023-02-15T06:17:28;8.33;;;7.43;;
15858;SDS011;8029;52.202;7.308;2023-02-15T06:19:54;7.57;;;6.60;;
15858;SDS011;8029;52.202;7.308;2023-02-15T06:22:20;8.83;;;7.47;;
15858;SDS011;8029;52.202;7.308;2023-02-15T06:24:47;8.17;;;7.17;;
15858;SDS011;8029;52.202;7.308;2023-02-15T06:27:13;11.33;;;9.37;;
15858;SDS011;8029;52.202;7.308;2023-02-15T06:29:39;8.93;;;7.27;;
15858;SDS011;8029;52.202;7.308;2023-02-15T06:32:05;9.27;;;7.20;;
15858;SDS011;8029;52.202;7.308;2023-02-15T06:34:31;8.80;;;7.87;;
15858;SDS011;8029;52.202;7.308;2023-02-15T06:36:57;7.87;;;7.07;;
15858;SDS011;8029;52.202;7.308;2023-02-15T06:39:23;13.03;;;8.03;;
15858;SDS011;8029;52.202;7.308;2023-02-15T06:41:50;8.77;;;7.80;;
15858;SDS011;8029;52.202;7.308;2023-02-15T06:44:16;8.47;;;7.67;;
15858;SDS011;8029;52.202;7.308;2023-02-15T06:46:42;9.73;;;7.00;;
15858;SDS011;8029;52.202;7.308;2023-02-15T06:49:08;10.07;;;7.73;;
15858;SDS011;8029;52.202;7.308;2023-02-15T06:51:34;8.43;;;7.30;;
15858;SDS011;8029;52.202;7.308;2023-02-15T06:54:01;13.77;;;8.63;;
15858;SDS011;8029;52.202;7.308;2023-02-15T06:56:29;11.53;;;7.93;;
15858;SDS011;8029;52.202;7.308;2023-02-15T06:58:55;8.80;;;7.03;;
15858;SDS011;8029;52.202;7.308;2023-02-15T07:01:21;9.63;;;7.57;;
15858;SDS011;8029;52.202;7.308;2023-02-15T07:03:47;8.50;;;7.47;;
15858;SDS011;8029;52.202;7.308;2023-02-15T07:06:15;7.57;;;6.67;;
15858;SDS011;8029;52.202;7.308;2023-02-15T07:08:41;27.87;;;7.03;;
15858;SDS011;8029;52.202;7.308;2023-02-15T07:11:07;7.37;;;6.20;;
15858;SDS011;8029;52.202;7.308;2023-02-15T07:13:56;11.97;;;7.57;;
15858;SDS011;8029;52.202;7.308;2023-02-15T07:16:22;9.10;;;7.33;;
15858;SDS011;8029;52.202;7.308;2023-02-15T07:18:48;7.93;;;6.43;;
15858;SDS011;8029;52.202;7.308;2023-02-15T07:21:14;6.27;;;5.70;;
15858;SDS011;8029;52.202;7.308;2023-02-15T07:23:40;11.07;;;6.80;;
15858;SDS011;8029;52.202;7.308;2023-02-15T07:26:06;6.33;;;5.73;;
15858;SDS011;8029;52.202;7.308;2023-02-15T07:28:32;6.47;;;5.87;;
15858;SDS011;8029;52.202;7.308;2023-02-15T07:31:00;6.10;;;5.53;;
15858;SDS011;8029;52.202;7.308;2023-02-15T07:33:27;8.07;;;5.73;;
15858;SDS011;8029;52.202;7.308;2023-02-15T07:35:54;6.57;;;5.87;;
15858;SDS011;8029;52.202;7.308;2023-02-15T07:38:22;7.30;;;6.57;;
15858;SDS011;8029;52.202;7.308;2023-02-15T07:40:49;6.37;;;5.77;;
15858;SDS011;8029;52.202;7.308;2023-02-15T07:43:15;6.10;;;5.23;;
15858;SDS011;8029;52.202;7.308;2023-02-15T07:45:41;5.53;;;5.07;;
15858;SDS011;8029;52.202;7.308;2023-02-15T07:48:07;5.70;;;5.20;;
15858;SDS011;8029;52.202;7.308;2023-02-15T07:50:34;5.87;;;5.37;;
15858;SDS011;8029;52.202;7.308;2023-02-15T07:55:30;6.07;;;5.47;;
15858;SDS011;8029;52.202;7.308;2023-02-15T07:57:56;11.87;;;6.27;;
15858;SDS011;8029;52.202;7.308;2023-02-15T08:00:22;6.40;;;5.80;;
15858;SDS011;8029;52.202;7.308;2023-02-15T08:02:58;6.70;;;6.00;;
15858;SDS011;8029;52.202;7.308;2023-02-15T08:05:40;5.97;;;4.97;;
15858;SDS011;8029;52.202;7.308;2023-02-15T08:08:06;6.53;;;5.93;;
15858;SDS011;8029;52.202;7.308;2023-02-15T08:10:33;7.07;;;6.37;;
15858;SDS011;8029;52.202;7.308;2023-02-15T08:13:17;5.93;;;5.33;;
15858;SDS011;8029;52.202;7.308;2023-02-15T08:15:50;8.87;;;7.07;;
15858;SDS011;8029;52.202;7.308;2023-02-15T08:18:16;5.77;;;5.17;;
15858;SDS011;8029;52.202;7.308;2023-02-15T08:20:42;7.17;;;6.50;;
15858;SDS011;8029;52.202;7.308;2023-02-15T08:23:08;6.87;;;6.27;;
15858;SDS011;8029;52.202;7.308;2023-02-15T08:25:34;8.23;;;7.10;;
15858;SDS011;8029;52.202;7.308;2023-02-15T08:28:00;9.33;;;7.10;;
15858;SDS011;8029;52.202;7.308;2023-02-15T08:30:26;9.33;;;7.90;;
15858;SDS011;8029;52.202;7.308;2023-02-15T08:32:52;7.40;;;6.60;;
15858;SDS011;8029;52.202;7.308;2023-02-15T08:35:18;10.90;;;7.93;;
15858;SDS011;8029;52.202;7.308;2023-02-15T08:37:44;8.50;;;7.70;;
15858;SDS011;8029;52.202;7.308;2023-02-15T08:40:10;9.10;;;7.83;;
15858;SDS011;8029;52.202;7.308;2023-02-15T08:42:38;11.83;;;8.87;;
15858;SDS011;8029;52.202;7.308;2023-02-15T08:45:04;9.13;;;8.17;;
15858;SDS011;8029;52.202;7.308;2023-02-15T08:47:30;10.87;;;9.37;;
15858;SDS011;8029;52.202;7.308;2023-02-15T08:49:56;10.53;;;9.40;;
15858;SDS011;8029;52.202;7.308;2023-02-15T08:52:22;10.27;;;9.20;;
15858;SDS011;8029;52.202;7.308;2023-02-15T08:54:48;9.60;;;8.60;;
15858;SDS011;8029;52.202;7.308;2023-02-15T08:57:14;16.80;;;9.70;;
15858;SDS011;8029;52.202;7.308;2023-02-15T08:59:40;12.67;;;10.50;;
15858;SDS011;8029;52.202;7.308;2023-02-15T09:02:06;11.60;;;10.17;;
15858;SDS011;8029;52.202;7.308;2023-02-15T09:04:32;14.50;;;10.57;;
15858;SDS011;8029;52.202;7.308;2023-02-15T09:06:58;10.47;;;9.47;;
15858;SDS011;8029;52.202;7.308;2023-02-15T09:09:24;12.17;;;10.03;;
15858;SDS011;8029;52.202;7.308;2023-02-15T09:11:50;15.93;;;13.00;;
15858;SDS011;8029;52.202;7.308;2023-02-15T09:14:17;12.60;;;10.27;;
15858;SDS011;8029;52.202;7.308;2023-02-15T09:16:46;13.10;;;10.73;;
15858;SDS011;8029;52.202;7.308;2023-02-15T09:19:14;16.17;;;10.93;;
15858;SDS011;8029;52.202;7.308;2023-02-15T09:21:40;14.03;;;12.50;;
15858;SDS011;8029;52.202;7.308;2023-02-15T09:24:07;12.57;;;11.27;;
15858;SDS011;8029;52.202;7.308;2023-02-15T09:26:34;14.33;;;12.30;;
15858;SDS011;8029;52.202;7.308;2023-02-15T09:29:00;12.73;;;11.43;;
15858;SDS011;8029;52.202;7.308;2023-02-15T09:31:29;14.67;;;12.17;;
15858;SDS011;8029;52.202;7.308;2023-02-15T09:33:55;17.50;;;13.40;;
15858;SDS011;8029;52.202;7.308;2023-02-15T09:36:25;13.93;;;12.53;;
15858;SDS011;8029;52.202;7.308;2023-02-15T09:43:59;15.57;;;12.73;;
15858;SDS011;8029;52.202;7.308;2023-02-15T09:59:35;15.13;;;13.30;;
15858;SDS011;8029;52.202;7.308;2023-02-15T10:07:20;16.17;;;14.30;;
15858;SDS011;8029;52.202;7.308;2023-02-15T10:12:53;18.57;;;14.83;;
15858;SDS011;8029;52.202;7.308;2023-02-15T10:15:28;16.57;;;14.40;;
15858;SDS011;8029;52.202;7.308;2023-02-15T10:18:32;15.87;;;14.20;;
15858;SDS011;8029;52.202;7.308;2023-02-15T10:20:54;23.80;;;14.80;;
15858;SDS011;8029;52.202;7.308;2023-02-15T10:23:34;17.02;;;12.80;;
15858;SDS011;8029;52.202;7.308;2023-02-15T10:26:20;14.70;;;12.02;;
15858;SDS011;8029;52.202;7.308;2023-02-15T10:28:51;19.65;;;14.20;;
15858;SDS011;8029;52.202;7.308;2023-02-15T10:31:23;21.50;;;15.55;;
15858;SDS011;8029;52.202;7.308;2023-02-15T10:33:53;16.58;;;14.73;;
15858;SDS011;8029;52.202;7.308;2023-02-15T10:39:20;21.92;;;13.85;;
15858;SDS011;8029;52.202;7.308;2023-02-15T10:45:06;23.52;;;16.58;;
15858;SDS011;8029;52.202;7.308;2023-02-15T10:50:06;21.13;;;15.50;;
15858;SDS011;8029;52.202;7.308;2023-02-15T10:52:50;33.65;;;14.77;;
15858;SDS011;8029;52.202;7.308;2023-02-15T10:57:56;18.70;;;14.63;;
15858;SDS011;8029;52.202;7.308;2023-02-15T11:00:27;16.60;;;14.88;;
15858;SDS011;8029;52.202;7.308;2023-02-15T11:05:29;18.83;;;14.50;;
15858;SDS011;8029;52.202;7.308;2023-02-15T11:08:00;16.15;;;13.82;;
15858;SDS011;8029;52.202;7.308;2023-02-15T11:10:33;17.70;;;14.30;;
15858;SDS011;8029;52.202;7.308;2023-02-15T11:13:03;19.92;;;14.75;;
15858;SDS011;8029;52.202;7.308;2023-02-15T11:17:57;22.75;;;15.27;;
15858;SDS011;8029;52.202;7.308;2023-02-15T11:20:34;24.15;;;14.70;;
15858;SDS011;8029;52.202;7.308;2023-02-15T11:23:01;14.75;;;12.52;;
15858;SDS011;8029;52.202;7.308;2023-02-15T11:25:32;15.70;;;14.10;;
15858;SDS011;8029;52.202;7.308;2023-02-15T11:27:59;19.98;;;13.65;;
15858;SDS011;8029;52.202;7.308;2023-02-15T11:30:27;16.13;;;13.00;;
15858;SDS011;8029;52.202;7.308;2023-02-15T11:32:55;15.00;;;13.25;;
15858;SDS011;8029;52.202;7.308;2023-02-15T11:37:53;25.17;;;13.20;;
15858;SDS011;8029;52.202;7.308;2023-02-15T11:40:24;17.95;;;13.43;;
15858;SDS011;8029;52.202;7.308;2023-02-15T11:42:51;19.83;;;12.88;;
15858;SDS011;8029;52.202;7.308;2023-02-15T11:47:46;17.10;;;12.65;;
15858;SDS011;8029;52.202;7.308;2023-02-15T11:50:15;18.00;;;13.48;;
15858;SDS011;8029;52.202;7.308;2023-02-15T11:52:43;17.95;;;12.60;;
15858;SDS011;8029;52.202;7.308;2023-02-15T11:55:11;22.67;;;12.98;;
15858;SDS011;8029;52.202;7.308;2023-02-15T11:57:39;15.15;;;13.23;;
15858;SDS011;8029;52.202;7.308;2023-02-15T12:02:33;14.00;;;11.68;;
15858;SDS011;8029;52.202;7.308;2023-02-15T12:05:03;16.73;;;13.35;;
15858;SDS011;8029;52.202;7.308;2023-02-15T12:08:12;17.90;;;12.70;;
15858;SDS011;8029;52.202;7.308;2023-02-15T12:12:47;12.50;;;11.13;;
15858;SDS011;8029;52.202;7.308;2023-02-15T12:15:13;26.58;;;14.43;;
15858;SDS011;8029;52.202;7.308;2023-02-15T12:17:50;14.27;;;12.30;;
15858;SDS011;8029;52.202;7.308;2023-02-15T12:22:47;21.45;;;13.27;;
15858;SDS011;8029;52.202;7.308;2023-02-15T12:25:21;19.35;;;12.98;;
15858;SDS011;8029;52.202;7.308;2023-02-15T12:27:48;15.93;;;12.25;;
15858;SDS011;8029;52.202;7.308;2023-02-15T12:30:35;17.70;;;11.52;;
15858;SDS011;8029;52.202;7.308;2023-02-15T12:33:05;15.13;;;12.80;;
15858;SDS011;8029;52.202;7.308;2023-02-15T12:35:40;16.35;;;12.75;;
15858;SDS011;8029;52.202;7.308;2023-02-15T12:40:36;14.32;;;11.95;;
15858;SDS011;8029;52.202;7.308;2023-02-15T12:43:03;19.50;;;11.68;;
15858;SDS011;8029;52.202;7.308;2023-02-15T12:45:34;24.60;;;11.45;;
15858;SDS011;8029;52.202;7.308;2023-02-15T12:48:07;19.38;;;12.02;;
15858;SDS011;8029;52.202;7.308;2023-02-15T12:50:34;19.35;;;11.77;;
15858;SDS011;8029;52.202;7.308;2023-02-15T12:53:35;11.60;;;9.77;;
15858;SDS011;8029;52.202;7.308;2023-02-15T12:55:54;14.65;;;11.00;;
15858;SDS011;8029;52.202;7.308;2023-02-15T12:58:22;12.10;;;9.32;;
15858;SDS011;8029;52.202;7.308;2023-02-15T13:03:36;13.38;;;9.90;;
15858;SDS011;8029;52.202;7.308;2023-02-15T13:06:03;15.88;;;10.10;;
15858;SDS011;8029;52.202;7.308;2023-02-15T13:08:34;16.95;;;11.35;;
15858;SDS011;8029;52.202;7.308;2023-02-15T13:13:31;14.20;;;9.57;;
15858;SDS011;8029;52.202;7.308;2023-02-15T13:15:58;13.98;;;9.18;;
15858;SDS011;8029;52.202;7.308;2023-02-15T13:18:31;25.45;;;11.05;;
15858;SDS011;8029;52.202;7.308;2023-02-15T13:20:59;15.18;;;10.25;;
15858;SDS011;8029;52.202;7.308;2023-02-15T13:23:30;20.48;;;11.65;;
15858;SDS011;8029;52.202;7.308;2023-02-15T13:25:58;14.93;;;10.27;;
15858;SDS011;8029;52.202;7.308;2023-02-15T13:28:58;18.17;;;9.43;;
15858;SDS011;8029;52.202;7.308;2023-02-15T13:31:20;14.95;;;9.85;;
15858;SDS011;8029;52.202;7.308;2023-02-15T13:33:53;13.45;;;8.65;;
15858;SDS011;8029;52.202;7.308;2023-02-15T13:36:26;15.15;;;9.57;;
15858;SDS011;8029;52.202;7.308;2023-02-15T13:44:04;17.55;;;9.38;;
15858;SDS011;8029;52.202;7.308;2023-02-15T13:46:45;10.50;;;8.38;;
15858;SDS011;8029;52.202;7.308;2023-02-15T13:49:21;10.82;;;7.95;;
15858;SDS011;8029;52.202;7.308;2023-02-15T13:52:04;16.05;;;8.82;;
15858;SDS011;8029;52.202;7.308;2023-02-15T13:59:42;11.60;;;8.13;;
15858;SDS011;8029;52.202;7.308;2023-02-15T14:07:49;12.70;;;8.88;;
15858;SDS011;8029;52.202;7.308;2023-02-15T14:15:47;12.80;;;8.00;;
15858;SDS011;8029;52.202;7.308;2023-02-15T14:20:45;17.25;;;9.43;;
15858;SDS011;8029;52.202;7.308;2023-02-15T14:31:21;7.30;;;5.85;;
15858;SDS011;8029;52.202;7.308;2023-02-15T14:33:55;11.85;;;8.50;;
15858;SDS011;8029;52.202;7.308;2023-02-15T14:36:22;9.35;;;6.93;;
15858;SDS011;8029;52.202;7.308;2023-02-15T14:41:29;9.65;;;6.88;;
15858;SDS011;8029;52.202;7.308;2023-02-15T14:49:12;9.00;;;7.45;;
15858;SDS011;8029;52.202;7.308;2023-02-15T14:54:08;8.80;;;7.57;;
15858;SDS011;8029;52.202;7.308;2023-02-15T14:56:34;11.93;;;8.50;;
15858;SDS011;8029;52.202;7.308;2023-02-15T14:59:03;10.55;;;8.35;;
15858;SDS011;8029;52.202;7.308;2023-02-15T15:01:37;11.00;;;7.70;;
15858;SDS011;8029;52.202;7.308;2023-02-15T15:04:07;11.30;;;8.48;;
15858;SDS011;8029;52.202;7.308;2023-02-15T15:06:35;13.02;;;8.70;;
15858;SDS011;8029;52.202;7.308;2023-02-15T15:11:41;11.57;;;7.85;;
15858;SDS011;8029;52.202;7.308;2023-02-15T15:14:08;16.77;;;8.57;;
15858;SDS011;8029;52.202;7.308;2023-02-15T15:19:01;18.50;;;9.77;;
15858;SDS011;8029;52.202;7.308;2023-02-15T15:29:42;10.90;;;8.38;;
15858;SDS011;8029;52.202;7.308;2023-02-15T15:32:08;9.50;;;7.55;;
15858;SDS011;8029;52.202;7.308;2023-02-15T15:42:32;17.38;;;9.15;;
15858;SDS011;8029;52.202;7.308;2023-02-15T15:45:14;13.20;;;9.32;;
15858;SDS011;8029;52.202;7.308;2023-02-15T15:50:27;16.65;;;8.93;;
15858;SDS011;8029;52.202;7.308;2023-02-15T15:52:54;10.00;;;7.72;;
15858;SDS011;8029;52.202;7.308;2023-02-15T15:55:30;9.93;;;7.32;;
15858;SDS011;8029;52.202;7.308;2023-02-15T15:58:04;10.00;;;7.53;;
15858;SDS011;8029;52.202;7.308;2023-02-15T16:00:42;9.77;;;7.35;;
15858;SDS011;8029;52.202;7.308;2023-02-15T16:03:14;11.07;;;8.55;;
15858;SDS011;8029;52.202;7.308;2023-02-15T16:05:41;14.65;;;8.13;;
15858;SDS011;8029;52.202;7.308;2023-02-15T16:08:07;10.13;;;7.63;;
15858;SDS011;8029;52.202;7.308;2023-02-15T16:10:33;14.68;;;8.75;;
15858;SDS011;8029;52.202;7.308;2023-02-15T16:13:00;9.30;;;8.25;;
15858;SDS011;8029;52.202;7.308;2023-02-15T16:17:59;13.82;;;8.35;;
15858;SDS011;8029;52.202;7.308;2023-02-15T16:20:27;9.70;;;7.18;;
15858;SDS011;8029;52.202;7.308;2023-02-15T16:22:54;8.77;;;6.95;;
15858;SDS011;8029;52.202;7.308;2023-02-15T16:27:54;8.38;;;7.03;;
15858;SDS011;8029;52.202;7.308;2023-02-15T16:32:46;10.80;;;6.93;;
15858;SDS011;8029;52.202;7.308;2023-02-15T16:35:14;11.77;;;8.55;;
15858;SDS011;8029;52.202;7.308;2023-02-15T16:37:40;18.52;;;9.20;;
15858;SDS011;8029;52.202;7.308;2023-02-15T16:40:11;12.77;;;10.45;;
15858;SDS011;8029;52.202;7.308;2023-02-15T16:42:51;9.40;;;7.32;;
15858;SDS011;8029;52.202;7.308;2023-02-15T16:45:18;11.45;;;8.25;;
15858;SDS011;8029;52.202;7.308;2023-02-15T16:47:46;13.10;;;7.78;;
15858;SDS011;8029;52.202;7.308;2023-02-15T16:50:20;12.70;;;7.75;;
15858;SDS011;8029;52.202;7.308;2023-02-15T16:52:48;9.98;;;7.15;;
15858;SDS011;8029;52.202;7.308;2023-02-15T16:55:48;9.57;;;7.60;;
15858;SDS011;8029;52.202;7.308;2023-02-15T16:58:13;13.05;;;8.65;;
15858;SDS011;8029;52.202;7.308;2023-02-15T17:00:40;8.43;;;7.32;;
15858;SDS011;8029;52.202;7.308;2023-02-15T17:05:42;10.48;;;7.53;;
15858;SDS011;8029;52.202;7.308;2023-02-15T17:10:39;9.57;;;7.47;;
15858;SDS011;8029;52.202;7.308;2023-02-15T17:13:14;11.80;;;8.57;;
15858;SDS011;8029;52.202;7.308;2023-02-15T17:15:44;11.05;;;7.35;;
15858;SDS011;8029;52.202;7.308;2023-02-15T17:20:48;14.13;;;7.60;;
15858;SDS011;8029;52.202;7.308;2023-02-15T17:23:32;10.23;;;7.90;;
15858;SDS011;8029;52.202;7.308;2023-02-15T17:25:59;10.23;;;8.10;;
15858;SDS011;8029;52.202;7.308;2023-02-15T17:28:27;14.48;;;8.18;;
15858;SDS011;8029;52.202;7.308;2023-02-15T17:30:54;9.77;;;8.07;;
15858;SDS011;8029;52.202;7.308;2023-02-15T17:38:59;11.27;;;8.10;;
15858;SDS011;8029;52.202;7.308;2023-02-15T17:41:26;9.20;;;7.90;;
15858;SDS011;8029;52.202;7.308;2023-02-15T17:43:53;9.95;;;7.80;;
15858;SDS011;8029;52.202;7.308;2023-02-15T17:46:19;8.30;;;7.05;;
15858;SDS011;8029;52.202;7.308;2023-02-15T17:48:50;9.95;;;7.72;;
15858;SDS011;8029;52.202;7.308;2023-02-15T17:51:16;7.70;;;6.70;;
15858;SDS011;8029;52.202;7.308;2023-02-15T17:53:43;8.88;;;7.95;;
15858;SDS011;8029;52.202;7.308;2023-02-15T17:56:28;10.55;;;7.70;;
15858;SDS011;8029;52.202;7.308;2023-02-15T17:58:54;14.48;;;10.57;;
15858;SDS011;8029;52.202;7.308;2023-02-15T18:01:20;11.07;;;8.95;;
15858;SDS011;8029;52.202;7.308;2023-02-15T18:04:07;16.30;;;9.65;;
15858;SDS011;8029;52.202;7.308;2023-02-15T18:06:53;17.52;;;10.15;;